sensor_id;sensor_type;location;lat;lon;timestamp;P1;durP1;ratioP1;P2;durP2;ratioP2
44516;SDS011;30223;17.182;-96.766;2023-05-07T00:00:35;9.80;;;6.68;;
44516;SDS011;30223;17.182;-96.766;2023-05-07T00:03:02;9.57;;;7.22;;
44516;SDS011;30223;17.182;-96.766;2023-05-07T00:05:29;8.50;;;6.53;;
44516;SDS011;30223;17.182;-96.766;2023-05-07T00:07:56;9.57;;;6.60;;
44516;SDS011;30223;17.182;-96.766;2023-05-07T00:10:22;10.35;;;7.47;;
44516;SDS011;30223;17.182;-96.766;2023-05-07T00:12:50;11.02;;;7.30;;
44516;SDS011;30223;17.182;-96.766;2023-05-07T00:15:17;11.32;;;7.68;;
44516;SDS011;30223;17.182;-96.766;2023-05-07T00:17:44;10.88;;;7.63;;
44516;SDS011;30223;17.182;-96.766;2023-05-07T00:20:10;9.38;;;6.97;;
44516;SDS011;30223;17.182;-96.766;2023-05-07T00:22:37;10.18;;;8.05;;
44516;SDS011;30223;17.182;-96.766;2023-05-07T00:25:04;10.00;;;7.25;;
44516;SDS011;30223;17.182;-96.766;2023-05-07T00:27:31;9.20;;;7.20;;
44516;SDS011;30223;17.182;-96.766;2023-05-07T00:29:58;9.90;;;7.10;;
44516;SDS011;30223;17.182;-96.766;2023-05-07T00:32:25;7.72;;;6.93;;
44516;SDS011;30223;17.182;-96.766;2023-05-07T00:34:51;10.85;;;7.68;;
44516;SDS011;30223;17.182;-96.766;2023-05-07T00:37:18;9.45;;;6.90;;
44516;SDS011;30223;17.182;-96.766;2023-05-07T00:39:45;9.95;;;7.70;;
44516;SDS011;30223;17.182;-96.766;2023-05-07T00:42:12;10.05;;;7.43;;
44516;SDS011;30223;17.182;-96.766;2023-05-07T00:44:40;9.77;;;7.47;;
44516;SDS011;30223;17.182;-96.766;2023-05-07T00:47:07;9.60;;;7.35;;
44516;SDS011;30223;17.182;-96.766;2023-05-07T00:49:43;9.25;;;6.97;;
44516;SDS011;30223;17.182;-96.766;2023-05-07T00:52:14;10.32;;;6.55;;
44516;SDS011;30223;17.182;-96.766;2023-05-07T00:54:43;9.75;;;6.47;;
44516;SDS011;30223;17.182;-96.766;2023-05-07T00:57:10;12.25;;;7.93;;
44516;SDS011;30223;17.182;-96.766;2023-05-07T00:59:37;11.30;;;8.70;;
44516;SDS011;30223;17.182;-96.766;2023-05-07T01:02:04;8.70;;;7.03;;
44516;SDS011;30223;17.182;-96.766;2023-05-07T01:04:31;8.05;;;6.45;;
44516;SDS011;30223;17.182;-96.766;2023-05-07T01:06:58;10.63;;;7.22;;
44516;SDS011;30223;17.182;-96.766;2023-05-07T01:09:26;9.45;;;7.18;;
44516;SDS011;30223;17.182;-96.766;2023-05-07T01:11:54;10.60;;;7.10;;
44516;SDS011;30223;17.182;-96.766;2023-05-07T01:14:22;10.10;;;7.10;;
44516;SDS011;30223;17.182;-96.766;2023-05-07T01:16:50;9.77;;;7.55;;
44516;SDS011;30223;17.182;-96.766;2023-05-07T01:19:19;10.73;;;8.07;;
44516;SDS011;30223;17.182;-96.766;2023-05-07T01:21:47;9.40;;;6.68;;
44516;SDS011;30223;17.182;-96.766;2023-05-07T01:24:14;11.27;;;8.10;;
44516;SDS011;30223;17.182;-96.766;2023-05-07T01:26:42;11.00;;;7.78;;
44516;SDS011;30223;17.182;-96.766;2023-05-07T01:29:12;9.95;;;7.30;;
44516;SDS011;30223;17.182;-96.766;2023-05-07T01:31:39;12.57;;;7.90;;
44516;SDS011;30223;17.182;-96.766;2023-05-07T01:34:08;10.77;;;8.38;;
44516;SDS011;30223;17.182;-96.766;2023-05-07T01:36:38;10.40;;;7.95;;
44516;SDS011;30223;17.182;-96.766;2023-05-07T01:39:06;10.63;;;7.70;;
44516;SDS011;30223;17.182;-96.766;2023-05-07T01:41:35;10.43;;;8.30;;
44516;SDS011;30223;17.182;-96.766;2023-05-07T01:44:03;12.07;;;7.93;;
44516;SDS011;30223;17.182;-96.766;2023-05-07T01:46:31;10.65;;;6.80;;
44516;SDS011;30223;17.182;-96.766;2023-05-07T01:48:58;11.32;;;7.70;;
44516;SDS011;30223;17.182;-96.766;2023-05-07T01:51:25;9.05;;;7.55;;
44516;SDS011;30223;17.182;-96.766;2023-05-07T01:53:52;11.95;;;8.57;;
44516;SDS011;30223;17.182;-96.766;2023-05-07T01:56:19;9.32;;;6.53;;
44516;SDS011;30223;17.182;-96.766;2023-05-07T01:58:46;10.25;;;6.95;;
44516;SDS011;30223;17.182;-96.766;2023-05-07T02:01:13;11.23;;;7.38;;
44516;SDS011;30223;17.182;-96.766;2023-05-07T02:03:40;10.95;;;7.88;;
44516;SDS011;30223;17.182;-96.766;2023-05-07T02:06:07;8.70;;;6.97;;
44516;SDS011;30223;17.182;-96.766;2023-05-07T02:08:34;10.25;;;7.55;;
44516;SDS011;30223;17.182;-96.766;2023-05-07T02:11:00;9.65;;;7.45;;
44516;SDS011;30223;17.182;-96.766;2023-05-07T02:13:31;10.82;;;7.88;;
44516;SDS011;30223;17.182;-96.766;2023-05-07T02:15:58;8.35;;;6.30;;
44516;SDS011;30223;17.182;-96.766;2023-05-07T02:18:25;10.15;;;7.70;;
44516;SDS011;30223;17.182;-96.766;2023-05-07T02:20:52;9.73;;;8.05;;
44516;SDS011;30223;17.182;-96.766;2023-05-07T02:23:19;10.70;;;7.18;;
44516;SDS011;30223;17.182;-96.766;2023-05-07T02:25:45;10.57;;;6.85;;
44516;SDS011;30223;17.182;-96.766;2023-05-07T02:28:12;10.10;;;7.15;;
44516;SDS011;30223;17.182;-96.766;2023-05-07T02:30:39;10.65;;;7.03;;
44516;SDS011;30223;17.182;-96.766;2023-05-07T02:33:06;10.70;;;7.68;;
44516;SDS011;30223;17.182;-96.766;2023-05-07T02:35:33;11.38;;;7.75;;
44516;SDS011;30223;17.182;-96.766;2023-05-07T02:38:00;9.43;;;7.13;;
44516;SDS011;30223;17.182;-96.766;2023-05-07T02:40:27;8.48;;;7.07;;
44516;SDS011;30223;17.182;-96.766;2023-05-07T02:42:54;10.75;;;6.38;;
44516;SDS011;30223;17.182;-96.766;2023-05-07T02:45:21;9.05;;;6.93;;
44516;SDS011;30223;17.182;-96.766;2023-05-07T02:47:48;10.00;;;7.20;;
44516;SDS011;30223;17.182;-96.766;2023-05-07T02:50:24;10.05;;;7.65;;
44516;SDS011;30223;17.182;-96.766;2023-05-07T02:52:51;9.63;;;6.93;;
44516;SDS011;30223;17.182;-96.766;2023-05-07T02:55:18;12.15;;;7.50;;
44516;SDS011;30223;17.182;-96.766;2023-05-07T02:57:45;9.15;;;7.20;;
44516;SDS011;30223;17.182;-96.766;2023-05-07T03:00:16;9.88;;;7.55;;
44516;SDS011;30223;17.182;-96.766;2023-05-07T03:02:44;11.00;;;7.03;;
44516;SDS011;30223;17.182;-96.766;2023-05-07T03:05:11;9.38;;;7.68;;
44516;SDS011;30223;17.182;-96.766;2023-05-07T03:07:38;11.10;;;7.40;;
44516;SDS011;30223;17.182;-96.766;2023-05-07T03:10:06;9.93;;;7.53;;
44516;SDS011;30223;17.182;-96.766;2023-05-07T03:12:33;10.98;;;7.15;;
44516;SDS011;30223;17.182;-96.766;2023-05-07T03:15:00;9.98;;;7.07;;
44516;SDS011;30223;17.182;-96.766;2023-05-07T03:17:26;11.05;;;7.38;;
44516;SDS011;30223;17.182;-96.766;2023-05-07T03:19:53;9.50;;;7.18;;
44516;SDS011;30223;17.182;-96.766;2023-05-07T03:22:20;10.07;;;7.15;;
44516;SDS011;30223;17.182;-96.766;2023-05-07T03:24:46;9.55;;;7.75;;
44516;SDS011;30223;17.182;-96.766;2023-05-07T03:27:13;9.63;;;7.03;;
44516;SDS011;30223;17.182;-96.766;2023-05-07T03:29:40;9.18;;;6.93;;
44516;SDS011;30223;17.182;-96.766;2023-05-07T03:32:07;12.20;;;7.55;;
44516;SDS011;30223;17.182;-96.766;2023-05-07T03:34:33;8.55;;;6.32;;
44516;SDS011;30223;17.182;-96.766;2023-05-07T03:37:00;8.65;;;6.70;;
44516;SDS011;30223;17.182;-96.766;2023-05-07T03:39:27;11.18;;;7.60;;
44516;SDS011;30223;17.182;-96.766;2023-05-07T03:41:53;11.70;;;8.23;;
44516;SDS011;30223;17.182;-96.766;2023-05-07T03:44:20;9.63;;;6.90;;
44516;SDS011;30223;17.182;-96.766;2023-05-07T03:46:47;9.02;;;6.50;;
44516;SDS011;30223;17.182;-96.766;2023-05-07T03:49:14;9.38;;;7.53;;
44516;SDS011;30223;17.182;-96.766;2023-05-07T03:51:40;9.77;;;8.18;;
44516;SDS011;30223;17.182;-96.766;2023-05-07T03:54:07;10.20;;;7.25;;
44516;SDS011;30223;17.182;-96.766;2023-05-07T03:56:34;9.95;;;7.50;;
44516;SDS011;30223;17.182;-96.766;2023-05-07T03:59:01;9.75;;;6.80;;
44516;SDS011;30223;17.182;-96.766;2023-05-07T04:01:28;10.57;;;8.23;;
44516;SDS011;30223;17.182;-96.766;2023-05-07T04:03:55;11.10;;;7.13;;
44516;SDS011;30223;17.182;-96.766;2023-05-07T04:06:21;9.77;;;7.40;;
44516;SDS011;30223;17.182;-96.766;2023-05-07T04:08:48;9.82;;;6.53;;
44516;SDS011;30223;17.182;-96.766;2023-05-07T04:11:15;10.07;;;7.60;;
44516;SDS011;30223;17.182;-96.766;2023-05-07T04:13:42;11.70;;;8.57;;
44516;SDS011;30223;17.182;-96.766;2023-05-07T04:16:08;10.90;;;7.65;;
44516;SDS011;30223;17.182;-96.766;2023-05-07T04:18:35;10.80;;;7.28;;
44516;SDS011;30223;17.182;-96.766;2023-05-07T04:21:02;9.90;;;7.30;;
44516;SDS011;30223;17.182;-96.766;2023-05-07T04:23:29;9.35;;;7.38;;
44516;SDS011;30223;17.182;-96.766;2023-05-07T04:25:56;9.38;;;6.93;;
44516;SDS011;30223;17.182;-96.766;2023-05-07T04:28:23;10.00;;;6.93;;
44516;SDS011;30223;17.182;-96.766;2023-05-07T04:30:50;10.73;;;7.65;;
44516;SDS011;30223;17.182;-96.766;2023-05-07T04:33:16;10.38;;;7.70;;
44516;SDS011;30223;17.182;-96.766;2023-05-07T04:35:43;9.80;;;6.68;;
44516;SDS011;30223;17.182;-96.766;2023-05-07T04:38:10;11.07;;;6.53;;
44516;SDS011;30223;17.182;-96.766;2023-05-07T04:40:37;9.77;;;6.93;;
44516;SDS011;30223;17.182;-96.766;2023-05-07T04:43:04;8.57;;;6.47;;
44516;SDS011;30223;17.182;-96.766;2023-05-07T04:45:31;9.13;;;6.65;;
44516;SDS011;30223;17.182;-96.766;2023-05-07T04:47:58;8.95;;;7.25;;
44516;SDS011;30223;17.182;-96.766;2023-05-07T04:50:25;11.48;;;7.50;;
44516;SDS011;30223;17.182;-96.766;2023-05-07T04:52:51;8.40;;;6.70;;
44516;SDS011;30223;17.182;-96.766;2023-05-07T04:55:18;9.88;;;7.40;;
44516;SDS011;30223;17.182;-96.766;2023-05-07T04:57:45;8.00;;;6.32;;
44516;SDS011;30223;17.182;-96.766;2023-05-07T05:00:12;10.02;;;6.75;;
44516;SDS011;30223;17.182;-96.766;2023-05-07T05:02:45;10.93;;;7.13;;
44516;SDS011;30223;17.182;-96.766;2023-05-07T05:05:12;10.20;;;7.22;;
44516;SDS011;30223;17.182;-96.766;2023-05-07T05:07:38;8.77;;;6.70;;
44516;SDS011;30223;17.182;-96.766;2023-05-07T05:10:08;9.73;;;7.10;;
44516;SDS011;30223;17.182;-96.766;2023-05-07T05:12:35;9.65;;;6.35;;
44516;SDS011;30223;17.182;-96.766;2023-05-07T05:15:01;8.57;;;6.70;;
44516;SDS011;30223;17.182;-96.766;2023-05-07T05:17:28;8.10;;;6.88;;
44516;SDS011;30223;17.182;-96.766;2023-05-07T05:19:55;9.68;;;7.43;;
44516;SDS011;30223;17.182;-96.766;2023-05-07T05:22:22;8.95;;;6.97;;
44516;SDS011;30223;17.182;-96.766;2023-05-07T05:24:52;8.40;;;7.18;;
44516;SDS011;30223;17.182;-96.766;2023-05-07T05:27:18;7.55;;;6.43;;
44516;SDS011;30223;17.182;-96.766;2023-05-07T05:29:45;11.35;;;7.57;;
44516;SDS011;30223;17.182;-96.766;2023-05-07T05:32:12;9.73;;;7.07;;
44516;SDS011;30223;17.182;-96.766;2023-05-07T05:34:38;11.38;;;6.97;;
44516;SDS011;30223;17.182;-96.766;2023-05-07T05:37:05;10.00;;;6.95;;
44516;SDS011;30223;17.182;-96.766;2023-05-07T05:39:32;8.50;;;6.80;;
44516;SDS011;30223;17.182;-96.766;2023-05-07T05:41:59;9.98;;;6.45;;
44516;SDS011;30223;17.182;-96.766;2023-05-07T05:44:25;8.40;;;6.35;;
44516;SDS011;30223;17.182;-96.766;2023-05-07T05:46:52;9.77;;;7.35;;
44516;SDS011;30223;17.182;-96.766;2023-05-07T05:49:20;10.40;;;7.03;;
44516;SDS011;30223;17.182;-96.766;2023-05-07T05:51:47;9.50;;;6.38;;
44516;SDS011;30223;17.182;-96.766;2023-05-07T05:54:14;9.75;;;7.05;;
44516;SDS011;30223;17.182;-96.766;2023-05-07T05:56:41;11.55;;;7.63;;
44516;SDS011;30223;17.182;-96.766;2023-05-07T05:59:08;7.28;;;6.22;;
44516;SDS011;30223;17.182;-96.766;2023-05-07T06:01:35;11.18;;;6.78;;
44516;SDS011;30223;17.182;-96.766;2023-05-07T06:04:01;9.70;;;6.90;;
44516;SDS011;30223;17.182;-96.766;2023-05-07T06:06:28;9.48;;;7.18;;
44516;SDS011;30223;17.182;-96.766;2023-05-07T06:08:57;9.93;;;6.97;;
44516;SDS011;30223;17.182;-96.766;2023-05-07T06:11:23;8.18;;;6.20;;
44516;SDS011;30223;17.182;-96.766;2023-05-07T06:13:50;8.60;;;6.80;;
44516;SDS011;30223;17.182;-96.766;2023-05-07T06:16:17;9.55;;;6.90;;
44516;SDS011;30223;17.182;-96.766;2023-05-07T06:18:44;8.35;;;5.60;;
44516;SDS011;30223;17.182;-96.766;2023-05-07T06:21:13;8.98;;;6.75;;
44516;SDS011;30223;17.182;-96.766;2023-05-07T06:23:40;8.05;;;6.18;;
44516;SDS011;30223;17.182;-96.766;2023-05-07T06:26:07;9.38;;;7.75;;
44516;SDS011;30223;17.182;-96.766;2023-05-07T06:28:34;10.18;;;6.75;;
44516;SDS011;30223;17.182;-96.766;2023-05-07T06:31:13;7.78;;;6.20;;
44516;SDS011;30223;17.182;-96.766;2023-05-07T06:33:45;8.20;;;6.13;;
44516;SDS011;30223;17.182;-96.766;2023-05-07T06:36:12;7.57;;;6.25;;
44516;SDS011;30223;17.182;-96.766;2023-05-07T06:38:39;7.93;;;6.63;;
44516;SDS011;30223;17.182;-96.766;2023-05-07T06:41:06;7.30;;;5.82;;
44516;SDS011;30223;17.182;-96.766;2023-05-07T06:43:33;8.88;;;6.68;;
44516;SDS011;30223;17.182;-96.766;2023-05-07T06:46:00;9.38;;;7.00;;
44516;SDS011;30223;17.182;-96.766;2023-05-07T06:48:26;8.57;;;6.05;;
44516;SDS011;30223;17.182;-96.766;2023-05-07T06:50:53;9.07;;;5.72;;
44516;SDS011;30223;17.182;-96.766;2023-05-07T06:53:21;9.48;;;6.55;;
44516;SDS011;30223;17.182;-96.766;2023-05-07T06:55:47;10.18;;;6.72;;
44516;SDS011;30223;17.182;-96.766;2023-05-07T06:58:14;10.05;;;6.25;;
44516;SDS011;30223;17.182;-96.766;2023-05-07T07:00:41;7.45;;;6.07;;
44516;SDS011;30223;17.182;-96.766;2023-05-07T07:03:08;8.52;;;6.00;;
44516;SDS011;30223;17.182;-96.766;2023-05-07T07:05:35;8.40;;;5.90;;
44516;SDS011;30223;17.182;-96.766;2023-05-07T07:08:01;11.48;;;7.05;;
44516;SDS011;30223;17.182;-96.766;2023-05-07T07:10:28;10.10;;;6.97;;
44516;SDS011;30223;17.182;-96.766;2023-05-07T07:12:55;10.25;;;6.35;;
44516;SDS011;30223;17.182;-96.766;2023-05-07T07:15:22;10.02;;;7.38;;
44516;SDS011;30223;17.182;-96.766;2023-05-07T07:17:50;8.70;;;6.80;;
44516;SDS011;30223;17.182;-96.766;2023-05-07T07:20:17;8.95;;;6.55;;
44516;SDS011;30223;17.182;-96.766;2023-05-07T07:22:43;8.45;;;6.10;;
44516;SDS011;30223;17.182;-96.766;2023-05-07T07:25:10;7.28;;;5.85;;
44516;SDS011;30223;17.182;-96.766;2023-05-07T07:27:37;8.48;;;5.88;;
44516;SDS011;30223;17.182;-96.766;2023-05-07T07:30:06;6.60;;;5.60;;
44516;SDS011;30223;17.182;-96.766;2023-05-07T07:32:34;9.18;;;6.38;;
44516;SDS011;30223;17.182;-96.766;2023-05-07T07:35:01;8.10;;;6.07;;
44516;SDS011;30223;17.182;-96.766;2023-05-07T07:37:27;10.80;;;6.28;;
44516;SDS011;30223;17.182;-96.766;2023-05-07T07:39:55;8.65;;;6.45;;
44516;SDS011;30223;17.182;-96.766;2023-05-07T07:42:21;7.95;;;6.00;;
44516;SDS011;30223;17.182;-96.766;2023-05-07T07:44:48;7.32;;;5.95;;
44516;SDS011;30223;17.182;-96.766;2023-05-07T07:47:15;8.07;;;5.53;;
44516;SDS011;30223;17.182;-96.766;2023-05-07T07:49:42;8.82;;;6.07;;
44516;SDS011;30223;17.182;-96.766;2023-05-07T07:52:08;7.85;;;6.35;;
44516;SDS011;30223;17.182;-96.766;2023-05-07T07:54:35;6.78;;;5.22;;
44516;SDS011;30223;17.182;-96.766;2023-05-07T07:57:04;8.02;;;5.60;;
44516;SDS011;30223;17.182;-96.766;2023-05-07T07:59:31;10.65;;;6.38;;
44516;SDS011;30223;17.182;-96.766;2023-05-07T08:01:58;6.85;;;5.70;;
44516;SDS011;30223;17.182;-96.766;2023-05-07T08:04:25;9.00;;;6.47;;
44516;SDS011;30223;17.182;-96.766;2023-05-07T08:06:51;8.75;;;6.55;;
44516;SDS011;30223;17.182;-96.766;2023-05-07T08:09:19;8.07;;;5.75;;
44516;SDS011;30223;17.182;-96.766;2023-05-07T08:11:46;6.82;;;5.93;;
44516;SDS011;30223;17.182;-96.766;2023-05-07T08:14:13;8.90;;;6.45;;
44516;SDS011;30223;17.182;-96.766;2023-05-07T08:16:41;9.95;;;5.72;;
44516;SDS011;30223;17.182;-96.766;2023-05-07T08:19:08;8.68;;;5.75;;
44516;SDS011;30223;17.182;-96.766;2023-05-07T08:21:39;6.97;;;6.28;;
44516;SDS011;30223;17.182;-96.766;2023-05-07T08:24:06;8.57;;;6.00;;
44516;SDS011;30223;17.182;-96.766;2023-05-07T08:26:33;8.70;;;6.32;;
44516;SDS011;30223;17.182;-96.766;2023-05-07T08:29:01;7.97;;;5.65;;
44516;SDS011;30223;17.182;-96.766;2023-05-07T08:31:28;7.95;;;5.78;;
44516;SDS011;30223;17.182;-96.766;2023-05-07T08:33:54;7.60;;;5.90;;
44516;SDS011;30223;17.182;-96.766;2023-05-07T08:36:21;7.35;;;5.95;;
44516;SDS011;30223;17.182;-96.766;2023-05-07T08:38:48;7.43;;;5.45;;
44516;SDS011;30223;17.182;-96.766;2023-05-07T08:43:48;7.35;;;5.53;;
44516;SDS011;30223;17.182;-96.766;2023-05-07T08:46:19;7.65;;;6.00;;
44516;SDS011;30223;17.182;-96.766;2023-05-07T08:48:51;8.02;;;6.00;;
44516;SDS011;30223;17.182;-96.766;2023-05-07T08:51:19;8.80;;;6.55;;
44516;SDS011;30223;17.182;-96.766;2023-05-07T08:53:47;7.25;;;5.78;;
44516;SDS011;30223;17.182;-96.766;2023-05-07T08:56:15;6.20;;;5.60;;
44516;SDS011;30223;17.182;-96.766;2023-05-07T08:58:45;7.25;;;5.43;;
44516;SDS011;30223;17.182;-96.766;2023-05-07T09:01:15;7.07;;;5.68;;
44516;SDS011;30223;17.182;-96.766;2023-05-07T09:03:46;8.35;;;5.53;;
44516;SDS011;30223;17.182;-96.766;2023-05-07T09:06:13;7.43;;;5.90;;
44516;SDS011;30223;17.182;-96.766;2023-05-07T09:08:40;7.32;;;5.30;;
44516;SDS011;30223;17.182;-96.766;2023-05-07T09:11:10;7.65;;;4.85;;
44516;SDS011;30223;17.182;-96.766;2023-05-07T09:13:38;8.65;;;6.22;;
44516;SDS011;30223;17.182;-96.766;2023-05-07T09:16:11;7.00;;;5.45;;
44516;SDS011;30223;17.182;-96.766;2023-05-07T09:18:42;7.38;;;5.03;;
44516;SDS011;30223;17.182;-96.766;2023-05-07T09:21:15;7.45;;;5.70;;
44516;SDS011;30223;17.182;-96.766;2023-05-07T09:23:42;7.43;;;5.22;;
44516;SDS011;30223;17.182;-96.766;2023-05-07T09:26:09;7.82;;;6.03;;
44516;SDS011;30223;17.182;-96.766;2023-05-07T09:28:39;7.63;;;5.30;;
44516;SDS011;30223;17.182;-96.766;2023-05-07T09:31:07;6.50;;;5.13;;
44516;SDS011;30223;17.182;-96.766;2023-05-07T09:33:35;7.25;;;5.43;;
44516;SDS011;30223;17.182;-96.766;2023-05-07T09:36:06;7.38;;;5.40;;
44516;SDS011;30223;17.182;-96.766;2023-05-07T09:38:35;7.65;;;5.55;;
44516;SDS011;30223;17.182;-96.766;2023-05-07T09:43:38;9.23;;;5.75;;
44516;SDS011;30223;17.182;-96.766;2023-05-07T09:46:12;8.20;;;6.73;;
44516;SDS011;30223;17.182;-96.766;2023-05-07T09:48:42;6.95;;;5.63;;
44516;SDS011;30223;17.182;-96.766;2023-05-07T09:51:25;7.57;;;5.90;;
44516;SDS011;30223;17.182;-96.766;2023-05-07T09:53:56;8.05;;;6.03;;
44516;SDS011;30223;17.182;-96.766;2023-05-07T09:56:26;7.05;;;5.20;;
44516;SDS011;30223;17.182;-96.766;2023-05-07T09:58:53;7.07;;;5.10;;
44516;SDS011;30223;17.182;-96.766;2023-05-07T10:01:21;6.55;;;4.60;;
44516;SDS011;30223;17.182;-96.766;2023-05-07T10:06:18;7.20;;;4.40;;
44516;SDS011;30223;17.182;-96.766;2023-05-07T10:08:46;6.80;;;4.72;;
44516;SDS011;30223;17.182;-96.766;2023-05-07T10:11:13;6.60;;;5.57;;
44516;SDS011;30223;17.182;-96.766;2023-05-07T10:13:41;6.80;;;4.65;;
44516;SDS011;30223;17.182;-96.766;2023-05-07T10:16:08;6.03;;;4.68;;
44516;SDS011;30223;17.182;-96.766;2023-05-07T10:18:35;7.65;;;4.78;;
44516;SDS011;30223;17.182;-96.766;2023-05-07T10:21:07;5.45;;;4.47;;
44516;SDS011;30223;17.182;-96.766;2023-05-07T10:23:37;4.85;;;3.95;;
44516;SDS011;30223;17.182;-96.766;2023-05-07T10:26:06;6.63;;;4.25;;
44516;SDS011;30223;17.182;-96.766;2023-05-07T10:28:42;6.65;;;4.63;;
44516;SDS011;30223;17.182;-96.766;2023-05-07T10:34:15;6.80;;;4.25;;
44516;SDS011;30223;17.182;-96.766;2023-05-07T10:36:48;6.28;;;4.70;;
44516;SDS011;30223;17.182;-96.766;2023-05-07T10:39:17;8.35;;;4.63;;
44516;SDS011;30223;17.182;-96.766;2023-05-07T10:41:47;5.15;;;4.03;;
44516;SDS011;30223;17.182;-96.766;2023-05-07T10:44:30;7.13;;;4.85;;
44516;SDS011;30223;17.182;-96.766;2023-05-07T10:47:07;6.53;;;4.82;;
44516;SDS011;30223;17.182;-96.766;2023-05-07T10:52:14;5.50;;;3.97;;
44516;SDS011;30223;17.182;-96.766;2023-05-07T10:57:38;4.80;;;3.53;;
44516;SDS011;30223;17.182;-96.766;2023-05-07T11:05:27;5.20;;;4.53;;
44516;SDS011;30223;17.182;-96.766;2023-05-07T11:07:58;6.50;;;4.47;;
44516;SDS011;30223;17.182;-96.766;2023-05-07T11:13:14;5.22;;;3.85;;
44516;SDS011;30223;17.182;-96.766;2023-05-07T11:15:44;5.88;;;4.53;;
44516;SDS011;30223;17.182;-96.766;2023-05-07T11:18:15;4.82;;;3.97;;
44516;SDS011;30223;17.182;-96.766;2023-05-07T11:20:44;5.57;;;3.78;;
44516;SDS011;30223;17.182;-96.766;2023-05-07T11:26:03;7.70;;;4.67;;
44516;SDS011;30223;17.182;-96.766;2023-05-07T11:28:32;6.13;;;4.95;;
44516;SDS011;30223;17.182;-96.766;2023-05-07T11:31:04;4.53;;;3.88;;
44516;SDS011;30223;17.182;-96.766;2023-05-07T11:33:31;5.43;;;4.15;;
44516;SDS011;30223;17.182;-96.766;2023-05-07T11:35:59;4.80;;;4.07;;
44516;SDS011;30223;17.182;-96.766;2023-05-07T11:38:26;5.60;;;4.35;;
44516;SDS011;30223;17.182;-96.766;2023-05-07T11:40:57;6.18;;;5.50;;
44516;SDS011;30223;17.182;-96.766;2023-05-07T11:43:26;5.55;;;4.95;;
44516;SDS011;30223;17.182;-96.766;2023-05-07T11:45:53;6.10;;;4.22;;
44516;SDS011;30223;17.182;-96.766;2023-05-07T11:48:21;5.38;;;3.85;;
44516;SDS011;30223;17.182;-96.766;2023-05-07T11:53:19;4.25;;;3.28;;
44516;SDS011;30223;17.182;-96.766;2023-05-07T11:55:46;5.30;;;3.85;;
44516;SDS011;30223;17.182;-96.766;2023-05-07T11:58:18;4.75;;;3.35;;
44516;SDS011;30223;17.182;-96.766;2023-05-07T12:00:51;3.80;;;3.22;;
44516;SDS011;30223;17.182;-96.766;2023-05-07T12:03:19;4.78;;;3.60;;
44516;SDS011;30223;17.182;-96.766;2023-05-07T12:05:47;5.95;;;4.10;;
44516;SDS011;30223;17.182;-96.766;2023-05-07T12:08:17;5.38;;;4.38;;
44516;SDS011;30223;17.182;-96.766;2023-05-07T12:10:45;4.32;;;3.67;;
44516;SDS011;30223;17.182;-96.766;2023-05-07T12:15:50;4.38;;;3.67;;
44516;SDS011;30223;17.182;-96.766;2023-05-07T12:18:21;5.07;;;4.07;;
44516;SDS011;30223;17.182;-96.766;2023-05-07T12:20:49;4.38;;;3.60;;
44516;SDS011;30223;17.182;-96.766;2023-05-07T12:23:16;5.85;;;4.22;;
44516;SDS011;30223;17.182;-96.766;2023-05-07T12:25:44;5.97;;;4.43;;
44516;SDS011;30223;17.182;-96.766;2023-05-07T12:28:13;5.30;;;4.20;;
44516;SDS011;30223;17.182;-96.766;2023-05-07T12:30:45;5.03;;;4.53;;
44516;SDS011;30223;17.182;-96.766;2023-05-07T12:33:17;6.47;;;4.15;;
44516;SDS011;30223;17.182;-96.766;2023-05-07T12:35:47;5.25;;;4.22;;
44516;SDS011;30223;17.182;-96.766;2023-05-07T12:38:14;5.05;;;4.30;;
44516;SDS011;30223;17.182;-96.766;2023-05-07T12:40:44;3.95;;;3.55;;
44516;SDS011;30223;17.182;-96.766;2023-05-07T12:43:25;6.57;;;4.25;;
44516;SDS011;30223;17.182;-96.766;2023-05-07T12:45:54;4.80;;;3.70;;
44516;SDS011;30223;17.182;-96.766;2023-05-07T12:48:23;4.68;;;3.78;;
44516;SDS011;30223;17.182;-96.766;2023-05-07T12:50:55;5.57;;;4.05;;
44516;SDS011;30223;17.182;-96.766;2023-05-07T12:53:24;4.50;;;3.58;;
44516;SDS011;30223;17.182;-96.766;2023-05-07T12:55:53;5.68;;;4.10;;
44516;SDS011;30223;17.182;-96.766;2023-05-07T13:00:51;5.45;;;3.30;;
44516;SDS011;30223;17.182;-96.766;2023-05-07T13:03:22;3.70;;;3.35;;
44516;SDS011;30223;17.182;-96.766;2023-05-07T13:05:51;4.60;;;3.53;;
44516;SDS011;30223;17.182;-96.766;2023-05-07T13:08:25;5.82;;;3.75;;
44516;SDS011;30223;17.182;-96.766;2023-05-07T13:11:00;5.85;;;4.05;;
44516;SDS011;30223;17.182;-96.766;2023-05-07T13:13:32;4.40;;;3.92;;
44516;SDS011;30223;17.182;-96.766;2023-05-07T13:16:00;4.53;;;3.78;;
44516;SDS011;30223;17.182;-96.766;2023-05-07T13:18:31;4.32;;;3.28;;
44516;SDS011;30223;17.182;-96.766;2023-05-07T13:20:59;4.95;;;3.50;;
44516;SDS011;30223;17.182;-96.766;2023-05-07T13:23:27;4.68;;;3.00;;
44516;SDS011;30223;17.182;-96.766;2023-05-07T13:25:54;5.30;;;3.60;;
44516;SDS011;30223;17.182;-96.766;2023-05-07T13:28:24;4.15;;;2.88;;
44516;SDS011;30223;17.182;-96.766;2023-05-07T13:30:52;4.72;;;3.15;;
44516;SDS011;30223;17.182;-96.766;2023-05-07T13:33:19;5.95;;;4.00;;
44516;SDS011;30223;17.182;-96.766;2023-05-07T13:35:46;3.78;;;2.92;;
44516;SDS011;30223;17.182;-96.766;2023-05-07T13:38:13;4.80;;;3.22;;
44516;SDS011;30223;17.182;-96.766;2023-05-07T13:40:41;7.13;;;4.25;;
44516;SDS011;30223;17.182;-96.766;2023-05-07T13:43:07;4.93;;;3.55;;
44516;SDS011;30223;17.182;-96.766;2023-05-07T13:45:34;4.57;;;2.75;;
44516;SDS011;30223;17.182;-96.766;2023-05-07T13:48:01;4.70;;;3.20;;
44516;SDS011;30223;17.182;-96.766;2023-05-07T13:50:28;3.88;;;2.70;;
44516;SDS011;30223;17.182;-96.766;2023-05-07T13:52:55;4.15;;;3.65;;
44516;SDS011;30223;17.182;-96.766;2023-05-07T13:55:23;6.13;;;3.97;;
44516;SDS011;30223;17.182;-96.766;2023-05-07T13:57:59;5.03;;;3.50;;
44516;SDS011;30223;17.182;-96.766;2023-05-07T14:00:28;4.03;;;3.60;;
44516;SDS011;30223;17.182;-96.766;2023-05-07T14:02:55;5.32;;;3.75;;
44516;SDS011;30223;17.182;-96.766;2023-05-07T14:05:23;3.58;;;2.50;;
44516;SDS011;30223;17.182;-96.766;2023-05-07T14:07:52;4.57;;;3.80;;
44516;SDS011;30223;17.182;-96.766;2023-05-07T14:10:20;4.45;;;2.75;;
44516;SDS011;30223;17.182;-96.766;2023-05-07T14:12:47;3.97;;;3.03;;
44516;SDS011;30223;17.182;-96.766;2023-05-07T14:15:14;5.80;;;4.07;;
44516;SDS011;30223;17.182;-96.766;2023-05-07T14:17:41;6.10;;;3.85;;
44516;SDS011;30223;17.182;-96.766;2023-05-07T14:20:09;4.57;;;3.97;;
44516;SDS011;30223;17.182;-96.766;2023-05-07T14:22:36;5.28;;;3.45;;
44516;SDS011;30223;17.182;-96.766;2023-05-07T14:25:03;5.00;;;3.33;;
44516;SDS011;30223;17.182;-96.766;2023-05-07T14:27:30;4.72;;;2.92;;
44516;SDS011;30223;17.182;-96.766;2023-05-07T14:29:57;4.57;;;3.53;;
44516;SDS011;30223;17.182;-96.766;2023-05-07T14:32:23;5.15;;;3.20;;
44516;SDS011;30223;17.182;-96.766;2023-05-07T14:34:50;4.05;;;3.35;;
44516;SDS011;30223;17.182;-96.766;2023-05-07T14:37:17;4.25;;;3.70;;
44516;SDS011;30223;17.182;-96.766;2023-05-07T14:39:45;5.57;;;3.70;;
44516;SDS011;30223;17.182;-96.766;2023-05-07T14:42:11;3.92;;;2.95;;
44516;SDS011;30223;17.182;-96.766;2023-05-07T14:44:38;3.97;;;3.45;;
44516;SDS011;30223;17.182;-96.766;2023-05-07T14:47:06;3.90;;;3.28;;
44516;SDS011;30223;17.182;-96.766;2023-05-07T14:49:34;4.13;;;3.70;;
44516;SDS011;30223;17.182;-96.766;2023-05-07T14:52:00;4.93;;;3.50;;
44516;SDS011;30223;17.182;-96.766;2023-05-07T14:54:27;2.75;;;2.55;;
44516;SDS011;30223;17.182;-96.766;2023-05-07T14:56:54;4.45;;;2.80;;